Time;durP1;ratioP1;P1;durP2;ratioP2;P2;SDS_P1;SDS_P2;PMS_P1;PMS_P2;Temp;Humidity;BMP_temperature;BMP_pressure;BME280_temperature;BME280_humidity;BME280_pressure;Samples;Min_cycle;Max_cycle;Signal;HPM_P1;HPM_P2
2021/03/24 00:01:37;;;;;;;68.57;38.45;;;;;;;8.69;59.59;71520.03;5071960;28;20485;-87
2021/03/24 00:04:04;;;;;;;58.05;35.83;;;;;;;7.63;59.66;71399.34;5071403;28;20024;-84
2021/03/24 00:06:32;;;;;;;67.38;37.33;;;;;;;8.68;60.00;71521.59;5073121;28;20028;-85
2021/03/24 00:09:00;;;;;;;65.07;38.40;;;;;;;8.23;59.54;71470.41;5073556;28;20051;-85
2021/03/24 00:11:27;;;;;;;70.15;36.38;;;;;;;8.02;59.15;71449.38;5073352;28;20042;-85
2021/03/24 00:13:54;;;;;;;70.93;39.28;;;;;;;8.36;59.12;71488.03;5071498;28;20020;-84
2021/03/24 00:16:22;;;;;;;63.65;35.78;;;;;;;8.74;59.40;71525.97;5071296;28;20017;-84
2021/03/24 00:18:49;;;;;;;55.03;34.60;;;;;;;8.82;59.18;71538.25;5071842;28;20472;-85
2021/03/24 00:21:17;;;;;;;65.25;35.30;;;;;;;8.95;58.80;71552.50;5071299;28;20041;-85
2021/03/24 00:23:44;;;;;;;60.67;33.88;;;;;;;8.02;58.11;71443.91;5072711;28;20552;-84
2021/03/24 00:26:11;;;;;;;65.40;35.65;;;;;;;8.81;58.62;71536.44;5071175;28;20546;-84
2021/03/24 00:28:38;;;;;;;64.38;38.22;;;;;;;8.88;57.88;71544.78;5070742;28;20085;-85
2021/03/24 00:31:04;;;;;;;57.92;34.83;;;;;;;8.77;58.20;71535.03;5071113;28;20032;-83
2021/03/24 00:33:31;;;;;;;60.88;35.58;;;;;;;8.92;58.42;71552.28;5072729;28;20105;-84
2021/03/24 00:35:58;;;;;;;63.45;34.67;;;;;;;8.35;58.56;71481.97;5071127;28;20485;-85
2021/03/24 00:38:26;;;;;;;58.00;34.33;;;;;;;8.73;58.35;71528.13;5070643;28;20094;-84
2021/03/24 00:40:56;;;;;;;60.67;35.13;;;;;;;9.20;57.90;71578.34;5071119;28;20036;-85
2021/03/24 00:43:23;;;;;;;58.90;35.15;;;;;;;8.94;57.47;71551.31;5070871;28;20370;-84
2021/03/24 00:45:50;;;;;;;56.45;36.15;;;;;;;9.57;57.37;71621.75;5070903;28;20074;-83
2021/03/24 00:48:34;;;;;;;68.18;33.53;;;;;;;9.13;58.48;71576.69;5072108;28;20504;-84
2021/03/24 00:51:02;;;;;;;59.10;35.42;;;;;;;9.27;58.54;71586.66;5070631;28;20089;-84
2021/03/24 00:53:29;;;;;;;58.25;34.80;;;;;;;9.29;57.82;71591.78;5070380;28;20028;-84
2021/03/24 00:55:56;;;;;;;59.38;36.20;;;;;;;9.03;57.78;71562.63;5070703;28;20020;-83
2021/03/24 00:58:23;;;;;;;59.42;36.30;;;;;;;8.83;57.54;71536.69;5071721;28;20123;-82
2021/03/24 01:00:51;;;;;;;61.63;33.65;;;;;;;8.93;57.98;71553.47;5070162;28;20450;-84
2021/03/24 01:03:18;;;;;;;62.92;34.83;;;;;;;9.17;57.83;71581.44;5070540;28;20025;-84
2021/03/24 01:05:49;;;;;;;64.40;31.95;;;;;;;9.51;57.98;71619.53;5070609;28;20505;-86
2021/03/24 01:08:19;;;;;;;57.22;32.28;;;;;;;9.53;57.90;71621.91;5071502;28;20025;-85
2021/03/24 01:10:46;;;;;;;52.42;30.90;;;;;;;8.38;59.47;71490.38;5070814;28;20493;-83
2021/03/24 01:13:15;;;;;;;50.17;31.65;;;;;;;8.76;59.23;71534.41;5071654;28;20074;-86
2021/03/24 01:15:43;;;;;;;57.20;31.70;;;;;;;9.23;58.94;71587.97;5074370;28;20025;-84
2021/03/24 01:18:10;;;;;;;58.80;30.05;;;;;;;8.21;58.56;71468.03;5077043;28;20791;-84
2021/03/24 01:20:39;;;;;;;52.75;33.88;;;;;;;9.31;58.46;71596.91;5074369;28;20044;-84
2021/03/24 01:23:07;;;;;;;53.28;31.88;;;;;;;9.15;58.69;71578.47;5078534;28;20035;-83
2021/03/24 01:25:34;;;;;;;43.67;29.30;;;;;;;8.35;58.11;71484.69;5070819;28;20016;-84
2021/03/24 01:28:03;;;;;;;50.20;28.90;;;;;;;9.02;58.51;71563.56;5069939;28;20069;-84
2021/03/24 01:30:32;;;;;;;51.53;29.90;;;;;;;9.06;57.67;71568.34;5070229;28;20397;-84
2021/03/24 01:32:59;;;;;;;55.22;30.00;;;;;;;9.55;57.20;71621.53;5070499;28;20335;-84
2021/03/24 01:35:26;;;;;;;46.88;27.02;;;;;;;9.14;57.03;71572.38;5053330;28;20017;-85
2021/03/24 01:37:54;;;;;;;49.42;27.30;;;;;;;9.32;57.03;71592.59;5072066;28;20025;-85
2021/03/24 01:40:27;;;;;;;42.97;27.33;;;;;;;9.84;56.91;71657.63;5072551;28;20028;-85
2021/03/24 01:42:58;;;;;;;42.35;26.88;;;;;;;9.93;56.99;71665.00;5072586;28;20024;-84
2021/03/24 01:45:24;;;;;;;46.25;28.75;;;;;;;10.03;57.00;71679.63;5073321;28;20108;-85
2021/03/24 01:47:52;;;;;;;47.55;25.55;;;;;;;9.92;56.77;71664.38;5069562;28;20044;-85
2021/03/24 01:50:34;;;;;;;44.50;25.17;;;;;;;10.18;55.92;71694.16;5070002;28;20053;-85
2021/03/24 01:53:01;;;;;;;46.95;26.23;;;;;;;9.56;55.91;71622.72;5069904;28;20032;-84
2021/03/24 01:55:29;;;;;;;43.85;24.45;;;;;;;9.92;55.40;71666.56;5069830;28;20028;-84
2021/03/24 01:57:58;;;;;;;42.75;23.33;;;;;;;9.71;55.46;71637.81;5069364;28;20032;-85
2021/03/24 02:00:36;;;;;;;47.58;25.65;;;;;;;10.09;56.00;71686.78;5069596;28;20028;-85
2021/03/24 02:03:05;;;;;;;43.35;25.48;;;;;;;10.23;55.74;71697.38;5069609;28;21360;-84
2021/03/24 02:05:33;;;;;;;48.58;26.63;;;;;;;9.54;55.94;71617.59;5069452;28;20028;-85
2021/03/24 02:08:04;;;;;;;55.38;28.30;;;;;;;9.89;55.53;71663.56;5069719;28;20103;-84
2021/03/24 02:10:48;;;;;;;48.10;25.05;;;;;;;10.11;55.91;71685.84;5069542;28;20020;-84
2021/03/24 02:13:27;;;;;;;38.67;21.58;;;;;;;10.49;55.52;71732.66;5069708;28;20401;-85
2021/03/24 02:16:02;;;;;;;30.13;19.80;;;;;;;10.74;55.70;71761.25;5069419;28;20025;-85
2021/03/24 02:18:32;;;;;;;37.35;18.98;;;;;;;10.07;55.63;71678.91;5071495;28;20021;-85
2021/03/24 02:21:02;;;;;;;31.38;19.00;;;;;;;10.70;55.41;71753.72;5069828;28;20052;-85
2021/03/24 02:23:39;;;;;;;41.15;19.95;;;;;;;10.84;55.06;71769.22;5070208;28;20375;-85
2021/03/24 02:26:27;;;;;;;35.08;19.40;;;;;;;10.76;55.15;71758.13;5069990;28;20035;-84
2021/03/24 02:28:55;;;;;;;33.97;17.95;;;;;;;10.53;54.72;71737.44;5074134;28;20032;-85
2021/03/24 02:31:25;;;;;;;35.90;17.17;;;;;;;9.90;55.11;71664.16;5075917;28;20040;-86
2021/03/24 02:33:54;;;;;;;;;;;;;;;11.06;54.78;71794.88;5078177;28;20025;-84
2021/03/24 02:36:22;;;;;;;28.23;15.30;;;;;;;10.72;54.55;71758.88;5075274;28;19938;-84
2021/03/24 02:38:53;;;;;;;30.38;14.15;;;;;;;10.92;54.26;71773.25;5076748;28;20071;-85
2021/03/24 02:41:21;;;;;;;26.15;15.38;;;;;;;10.93;54.51;71779.94;5075708;28;20047;-85
2021/03/24 02:43:49;;;;;;;31.25;15.00;;;;;;;11.47;53.77;71844.69;5076899;28;20020;-85
2021/03/24 02:46:16;;;;;;;23.00;15.27;;;;;;;10.92;53.56;71779.38;5073750;28;20028;-83
2021/03/24 02:48:45;;;;;;;29.67;15.55;;;;;;;11.74;53.25;71870.19;5073866;28;20020;-84
2021/03/24 02:51:17;;;;;;;34.50;14.88;;;;;;;11.11;52.76;71802.97;5073208;28;20052;-83
2021/03/24 02:53:45;;;;;;;31.95;15.57;;;;;;;11.47;53.24;71844.69;5074394;28;20025;-84
2021/03/24 02:56:12;;;;;;;33.67;15.05;;;;;;;11.34;52.66;71824.28;5072891;28;20404;-86
2021/03/24 02:58:39;;;;;;;29.40;14.35;;;;;;;11.23;52.82;71815.13;5073093;28;20056;-85
2021/03/24 03:01:25;;;;;;;27.58;14.18;;;;;;;11.58;53.02;71855.03;5074001;28;20646;-85
2021/03/24 03:04:00;;;;;;;26.85;15.07;;;;;;;11.09;53.44;71801.19;5073937;28;20116;-85
2021/03/24 03:06:29;;;;;;;24.60;13.18;;;;;;;11.43;53.00;71837.78;5073674;28;20028;-85
2021/03/24 03:09:11;;;;;;;27.58;15.60;;;;;;;11.53;53.22;71849.06;5072659;28;20029;-83
2021/03/24 03:11:52;;;;;;;27.38;15.45;;;;;;;11.45;53.06;71839.53;5073115;28;20052;-84
2021/03/24 03:14:28;;;;;;;26.75;15.70;;;;;;;11.64;52.43;71864.97;5072727;28;20040;-85
2021/03/24 03:17:10;;;;;;;32.78;15.43;;;;;;;10.51;53.55;71729.56;5072688;28;20039;-84
2021/03/24 03:19:56;;;;;;;23.27;13.65;;;;;;;11.71;53.55;71872.13;5072522;28;20482;-85
2021/03/24 03:22:31;;;;;;;30.75;15.70;;;;;;;10.80;52.26;71765.66;5072175;28;20515;-85
2021/03/24 03:25:05;;;;;;;26.92;15.18;;;;;;;10.89;52.68;71775.19;5073519;28;20033;-84
2021/03/24 03:27:32;;;;;;;33.15;14.50;;;;;;;10.48;52.67;71728.75;5073256;28;20059;-84
2021/03/24 03:30:03;;;;;;;23.58;13.68;;;;;;;11.63;53.04;71863.16;5072459;28;20397;-85
2021/03/24 03:32:31;;;;;;;22.10;12.85;;;;;;;10.52;52.97;71736.25;5073496;28;20025;-84
2021/03/24 03:35:10;;;;;;;26.95;13.07;;;;;;;11.61;52.96;71858.63;5072285;28;20050;-85
2021/03/24 03:37:38;;;;;;;26.85;15.30;;;;;;;11.81;53.03;71878.53;5071317;28;20473;-84
2021/03/24 03:40:13;;;;;;;24.30;13.63;;;;;;;11.29;52.55;71824.41;5073061;28;20032;-85
2021/03/24 03:42:41;;;;;;;24.38;13.18;;;;;;;10.86;52.14;71768.88;5071871;28;20025;-84
2021/03/24 03:45:11;;;;;;;24.70;16.88;;;;;;;11.38;52.34;71831.19;5072024;28;20670;-85
2021/03/24 03:47:40;;;;;;;23.83;12.88;;;;;;;11.27;51.91;71818.69;5071677;28;20048;-85
2021/03/24 03:50:13;;;;;;;20.05;13.07;;;;;;;11.60;51.97;71854.09;5072215;28;20576;-84
2021/03/24 03:52:46;;;;;;;35.80;14.40;;;;;;;11.78;52.42;71877.72;5072093;28;20024;-84
2021/03/24 03:55:52;;;;;;;27.63;14.27;;;;;;;11.74;52.44;71872.94;5071774;28;20077;-83
2021/03/24 03:58:41;;;;;;;23.88;13.05;;;;;;;11.97;53.10;71896.41;5076634;28;20041;-85
2021/03/24 04:01:17;;;;;;;36.55;13.50;;;;;;;12.05;52.70;71908.72;5054402;28;20079;-84
2021/03/24 04:03:54;;;;;;;30.42;13.18;;;;;;;12.18;52.07;71920.88;5052487;28;20052;-83
2021/03/24 04:06:35;;;;;;;34.80;13.15;;;;;;;11.61;52.12;71855.84;5062396;28;20040;-85
2021/03/24 04:09:02;;;;;;;30.67;13.70;;;;;;;11.72;52.67;71867.78;5072856;28;20032;-85
2021/03/24 04:11:36;;;;;;;25.48;14.88;;;;;;;12.06;52.78;71909.91;5072395;28;20362;-85
2021/03/24 04:14:07;;;;;;;30.73;15.23;;;;;;;11.15;53.84;71807.72;5074204;28;20028;-84
2021/03/24 04:16:37;;;;;;;29.23;16.25;;;;;;;10.99;54.49;71787.09;5072741;28;20032;-85
2021/03/24 04:19:07;;;;;;;36.47;14.43;;;;;;;11.74;54.25;71876.28;5072149;28;20028;-84
2021/03/24 04:21:40;;;;;;;28.65;15.25;;;;;;;10.85;54.26;71773.16;5071794;28;20044;-84
2021/03/24 04:24:27;;;;;;;22.73;14.63;;;;;;;11.96;54.53;71897.97;5072877;28;20031;-84
2021/03/24 04:26:58;;;;;;;30.20;14.07;;;;;;;10.70;54.63;71756.47;5072320;28;20021;-86
2021/03/24 04:29:40;;;;;;;33.17;14.80;;;;;;;11.04;54.50;71793.06;5072608;28;20016;-85
2021/03/24 04:32:10;;;;;;;30.80;13.95;;;;;;;11.51;53.64;71843.94;5072510;28;20473;-85
2021/03/24 04:34:39;;;;;;;22.55;14.25;;;;;;;11.38;53.82;71831.81;5072306;28;20040;-84
2021/03/24 04:37:20;;;;;;;32.30;14.07;;;;;;;11.16;54.12;71808.91;5071274;28;20082;-85
2021/03/24 04:40:00;;;;;;;24.20;13.82;;;;;;;11.91;53.39;71895.94;5072035;28;20485;-85
2021/03/24 04:42:32;;;;;;;;;;;;;;;12.10;53.47;71916.84;5071626;28;20033;-84
2021/03/24 04:45:15;;;;;;;22.80;12.07;;;;;;;12.28;52.46;71934.97;5071877;28;19926;-85
2021/03/24 04:47:51;;;;;;;22.35;12.88;;;;;;;11.81;53.71;71878.53;5072079;28;20024;-84
2021/03/24 04:50:42;;;;;;;19.30;11.38;;;;;;;11.28;53.96;71823.22;5070080;28;20051;-85
2021/03/24 04:53:13;;;;;;;25.83;11.60;;;;;;;11.57;54.44;71850.50;5072029;28;20028;-84
2021/03/24 04:55:41;;;;;;;17.00;10.43;;;;;;;11.22;54.35;71810.56;5073368;28;20033;-85
2021/03/24 04:58:23;;;;;;;26.63;9.32;;;;;;;11.83;55.22;71885.81;5071033;28;20035;-85
2021/03/24 05:00:55;;;;;;;28.48;8.32;;;;;;;11.88;55.14;71889.63;5070652;28;20028;-84
2021/03/24 05:03:28;;;;;;;27.38;9.85;;;;;;;12.00;54.67;71900.00;5071929;28;20024;-85
2021/03/24 05:06:01;;;;;;;19.13;7.55;;;;;;;11.95;54.41;71894.63;5071455;28;20024;-85
2021/03/24 05:08:46;;;;;;;32.13;15.85;;;;;;;11.50;56.11;71842.75;5073543;28;20029;-85
2021/03/24 05:11:25;;;;;;;20.17;10.32;;;;;;;11.04;55.43;71790.31;5072155;28;20118;-86
2021/03/24 05:14:16;;;;;;;22.55;11.82;;;;;;;11.85;55.33;71885.44;5071395;28;20028;-86
2021/03/24 05:16:46;;;;;;;28.75;12.35;;;;;;;11.22;56.81;71816.69;5050421;28;20041;-85
2021/03/24 05:19:25;;;;;;;23.02;11.38;;;;;;;10.85;56.49;71764.91;5051803;28;20017;-84
2021/03/24 05:22:10;;;;;;;28.35;11.32;;;;;;;11.60;55.70;71856.84;5050297;28;20077;-85
2021/03/24 05:24:41;;;;;;;23.25;11.35;;;;;;;10.08;56.39;71682.25;5054127;28;20021;-84
2021/03/24 05:27:21;;;;;;;17.80;10.70;;;;;;;11.12;55.64;71804.75;5070448;28;20028;-85
2021/03/24 05:29:53;;;;;;;28.23;10.77;;;;;;;11.13;55.82;71802.59;5072057;28;20043;-86
2021/03/24 05:32:29;;;;;;;22.23;11.82;;;;;;;11.43;55.60;71837.16;5074933;28;20036;-85
2021/03/24 05:35:02;;;;;;;28.25;9.63;;;;;;;11.46;55.55;71837.97;5075498;28;20024;-85
2021/03/24 05:37:32;;;;;;;29.80;9.68;;;;;;;11.75;54.71;71874.13;5073869;28;20090;-85
2021/03/24 05:40:11;;;;;;;15.20;9.43;;;;;;;11.21;55.18;71809.38;5075715;28;20035;-85
2021/03/24 05:42:53;;;;;;;25.70;9.98;;;;;;;11.75;55.22;71871.97;5076669;28;20039;-83
2021/03/24 05:45:43;;;;;;;24.58;7.85;;;;;;;11.11;54.60;71803.56;5077069;28;20560;-85
2021/03/24 05:48:48;;;;;;;18.65;7.22;;;;;;;11.96;55.15;71901.34;5077089;28;20036;-86
2021/03/24 05:51:46;;;;;;;22.38;6.97;;;;;;;11.78;55.37;71874.94;5071968;28;20045;-85
2021/03/24 05:54:37;;;;;;;25.35;7.05;;;;;;;11.81;55.31;71884.03;5069217;28;20123;-85
2021/03/24 05:57:24;;;;;;;21.13;7.57;;;;;;;10.79;55.66;71767.22;5069486;28;20123;-84
2021/03/24 06:00:33;;;;;;;19.85;8.45;;;;;;;12.18;55.11;71920.88;5070348;28;20024;-85
2021/03/24 06:03:33;;;;;;;17.58;8.25;;;;;;;12.18;55.78;71924.22;5070351;28;20107;-85
2021/03/24 06:05:59;;;;;;;;;;;;;;;12.07;56.09;71911.13;5061388;28;20041;-86
2021/03/24 06:08:58;;;;;;;21.83;7.90;;;;;;;11.81;56.48;71878.53;5069676;28;19919;-85
2021/03/24 06:11:46;;;;;;;16.33;7.10;;;;;;;11.65;56.36;71862.78;5050856;28;20045;-85
2021/03/24 06:14:35;;;;;;;17.70;7.00;;;;;;;11.28;56.72;71817.72;5069480;28;20434;-83
2021/03/24 06:17:11;;;;;;;21.63;7.07;;;;;;;11.19;56.12;71812.50;5069237;28;20025;-84
2021/03/24 06:19:51;;;;;;;25.70;6.72;;;;;;;11.43;57.54;71837.78;5069615;28;20031;-85
2021/03/24 06:22:30;;;;;;;13.60;6.18;;;;;;;11.33;56.63;71829.19;5069137;28;20048;-84
2021/03/24 06:25:26;;;;;;;19.33;5.88;;;;;;;11.18;56.28;71808.56;5069581;28;20056;-85
2021/03/24 06:28:08;;;;;;;20.15;6.78;;;;;;;11.88;56.37;71892.38;5069612;28;20055;-86
2021/03/24 06:30:40;;;;;;;19.42;5.32;;;;;;;10.99;56.66;71783.78;5069234;28;20055;-84
2021/03/24 06:33:25;;;;;;;39.88;6.80;;;;;;;11.67;56.53;71864.59;5068850;28;20032;-84
2021/03/24 06:36:12;;;;;;;19.48;6.45;;;;;;;11.68;56.32;71863.03;5070328;28;20470;-84
2021/03/24 06:38:59;;;;;;;13.07;6.00;;;;;;;11.20;57.16;71811.53;5070124;28;20385;-84
2021/03/24 06:41:50;;;;;;;12.98;6.38;;;;;;;11.72;56.30;71870.56;5072307;28;20029;-87
2021/03/24 06:44:19;;;;;;;;;;;;;;;11.78;56.79;71878.28;5074431;28;20029;-85
2021/03/24 06:47:07;;;;;;;15.52;6.05;;;;;;;11.76;57.06;71872.56;5072118;28;19904;-85
2021/03/24 06:49:52;;;;;;;21.77;7.10;;;;;;;11.75;56.65;71871.97;5073317;28;20468;-85
2021/03/24 06:52:36;;;;;;;19.88;6.75;;;;;;;11.58;57.60;71854.47;5077893;28;20393;-85
2021/03/24 06:55:27;;;;;;;17.98;6.38;;;;;;;11.78;56.91;71874.94;5077663;28;20052;-84
2021/03/24 06:58:18;;;;;;;23.98;6.90;;;;;;;11.65;57.39;71862.78;5080425;28;20044;-86
2021/03/24 07:01:04;;;;;;;16.17;5.78;;;;;;;10.91;57.23;71774.81;5069964;28;20454;-85
2021/03/24 07:03:46;;;;;;;17.92;6.43;;;;;;;11.64;57.53;71858.84;5068904;28;20037;-85
2021/03/24 07:06:46;;;;;;;15.25;5.93;;;;;;;11.60;57.81;71856.84;5069333;28;20032;-84
2021/03/24 07:09:15;;;;;;;;;;;;;;;11.53;57.47;71848.50;5077192;28;20037;-85
2021/03/24 07:12:00;;;;;;;11.98;5.97;;;;;;;11.78;57.36;71877.72;5079166;28;19942;-85
2021/03/24 07:14:56;;;;;;;13.75;4.45;;;;;;;11.66;57.91;71863.41;5080777;28;20123;-85
2021/03/24 07:17:26;;;;;;;14.55;4.05;;;;;;;11.77;57.14;71873.75;5078260;28;20427;-86
2021/03/24 07:20:14;;;;;;;21.83;6.57;;;;;;;11.58;57.99;71855.03;5074546;28;20064;-83
2021/03/24 07:22:59;;;;;;;13.23;4.40;;;;;;;11.41;58.21;71835.38;5074139;28;20040;-84
2021/03/24 07:25:49;;;;;;;12.35;4.18;;;;;;;11.39;59.05;71832.38;5072606;28;20027;-85
2021/03/24 07:28:41;;;;;;;15.75;5.75;;;;;;;11.49;59.04;71847.06;5073799;28;20040;-85
2021/03/24 07:31:35;;;;;;;12.63;4.80;;;;;;;11.43;59.45;71835.03;5064466;28;20040;-86
2021/03/24 07:34:10;;;;;;;22.38;7.03;;;;;;;11.20;60.98;71813.69;5073801;28;20072;-83
2021/03/24 07:36:55;;;;;;;11.93;5.50;;;;;;;11.27;60.57;71816.53;5073716;28;20027;-85
2021/03/24 07:39:36;;;;;;;15.50;6.75;;;;;;;11.41;60.53;71832.63;5072055;28;20024;-85
2021/03/24 07:42:23;;;;;;;8.80;4.53;;;;;;;11.14;60.21;71801.66;5073569;28;20032;-85
2021/03/24 07:45:14;;;;;;;17.45;4.78;;;;;;;11.32;60.70;71828.00;5073777;28;20028;-84
2021/03/24 07:48:03;;;;;;;23.73;6.32;;;;;;;10.75;60.32;71756.94;5071765;28;20040;-84
2021/03/24 07:50:59;;;;;;;20.70;7.38;;;;;;;10.88;59.75;71774.00;5040532;28;20048;-84
2021/03/24 07:53:39;;;;;;;6.63;4.53;;;;;;;11.08;60.59;71797.84;5051943;28;20043;-85
2021/03/24 07:57:02;;;;;;;11.30;4.97;;;;;;;11.25;60.32;71814.16;5053788;28;20466;-85
2021/03/24 07:59:37;;;;;;;14.90;4.70;;;;;;;11.17;60.27;71801.88;5019036;28;20509;-85
2021/03/24 08:02:37;;;;;;;16.63;4.80;;;;;;;10.99;60.44;71784.34;5050723;28;20021;-85
2021/03/24 08:05:23;;;;;;;16.13;5.57;;;;;;;11.56;60.44;71852.66;5067942;28;20033;-85
2021/03/24 08:08:31;;;;;;;25.13;5.68;;;;;;;11.42;61.01;71838.72;5071843;28;20481;-85
2021/03/24 08:11:09;;;;;;;10.05;4.50;;;;;;;11.16;62.25;71803.41;5033876;28;20036;-85
2021/03/24 08:13:50;;;;;;;17.40;5.65;;;;;;;10.73;61.86;71754.56;5066742;28;20033;-85
2021/03/24 08:16:36;;;;;;;9.95;4.13;;;;;;;10.30;62.10;71705.13;5071726;28;20071;-85
2021/03/24 08:19:33;;;;;;;7.75;4.68;;;;;;;11.12;62.46;71801.41;5073199;28;20082;-84
2021/03/24 08:22:24;;;;;;;15.55;4.47;;;;;;;11.13;62.83;71805.97;5072082;28;20059;-85
2021/03/24 08:25:00;;;;;;;15.15;4.45;;;;;;;11.22;62.58;71810.56;5071394;28;20474;-85
2021/03/24 08:27:27;;;;;;;19.83;5.25;;;;;;;11.18;63.03;71811.91;5071024;28;20037;-84
2021/03/24 08:30:18;;;;;;;13.90;4.63;;;;;;;11.35;62.93;71831.56;5071283;28;20028;-84
2021/03/24 08:33:21;;;;;;;13.18;5.28;;;;;;;11.11;62.97;71798.06;5071322;28;20123;-85
2021/03/24 08:36:13;;;;;;;6.72;4.57;;;;;;;10.99;63.03;71789.28;5071372;28;20142;-85
2021/03/24 08:39:00;;;;;;;11.05;3.55;;;;;;;10.29;63.93;71703.31;5071940;28;20055;-85
2021/03/24 08:42:02;;;;;;;14.15;4.30;;;;;;;10.72;63.85;71756.13;5070820;28;20043;-85
2021/03/24 08:44:59;;;;;;;11.50;4.05;;;;;;;10.79;63.60;71761.13;5072972;28;20024;-85
2021/03/24 08:47:42;;;;;;;14.80;5.03;;;;;;;10.18;63.09;71696.91;5042237;28;20037;-84
2021/03/24 08:50:28;;;;;;;18.42;5.18;;;;;;;10.20;63.25;71696.56;5052655;28;20107;-85
2021/03/24 08:53:11;;;;;;;8.65;3.80;;;;;;;9.94;62.79;71666.75;5050638;28;20028;-84
2021/03/24 08:56:08;;;;;;;15.38;4.38;;;;;;;10.73;63.37;71757.31;5050557;28;20075;-83
2021/03/24 08:58:39;;;;;;;15.15;4.53;;;;;;;10.30;63.70;71707.25;5050895;28;20033;-84
2021/03/24 09:01:39;;;;;;;19.02;5.07;;;;;;;9.52;64.18;71621.28;5051959;28;20123;-84
2021/03/24 09:04:47;;;;;;;16.10;4.32;;;;;;;10.15;65.66;71690.00;5039649;28;20124;-84
2021/03/24 09:07:46;;;;;;;28.77;4.95;;;;;;;9.96;65.36;71668.56;5063962;28;20693;-84
2021/03/24 09:10:19;;;;;;;22.75;5.18;;;;;;;10.17;65.62;71692.97;5073425;28;20062;-85
2021/03/24 09:12:59;;;;;;;16.60;4.68;;;;;;;9.36;65.66;71600.13;5071504;28;20032;-84
2021/03/24 09:15:43;;;;;;;11.02;3.65;;;;;;;8.92;66.90;71546.81;5070652;28;20427;-86
2021/03/24 09:18:33;;;;;;;9.20;4.13;;;;;;;9.22;65.71;71586.19;5069708;28;20032;-85
2021/03/24 09:21:05;;;;;;;10.90;4.75;;;;;;;9.91;66.32;71660.47;5070397;28;20040;-85
2021/03/24 09:23:57;;;;;;;15.98;4.93;;;;;;;9.97;66.39;71667.00;5070258;28;20547;-85
2021/03/24 09:26:55;;;;;;;18.85;4.53;;;;;;;9.64;66.31;71629.50;5070059;28;20534;-84
2021/03/24 09:29:44;;;;;;;12.93;5.82;;;;;;;9.90;66.87;71662.00;5070682;28;20028;-83
2021/03/24 09:32:32;;;;;;;20.30;5.75;;;;;;;9.99;66.79;71672.72;5069724;28;20505;-84
2021/03/24 09:35:17;;;;;;;12.93;3.83;;;;;;;9.86;67.67;71657.25;5070067;28;20123;-84
2021/03/24 09:38:06;;;;;;;15.88;4.63;;;;;;;9.17;67.45;71581.44;5068744;28;20040;-84
2021/03/24 09:40:44;;;;;;;14.30;5.47;;;;;;;9.02;68.54;71558.09;5069612;28;20032;-85
2021/03/24 09:43:30;;;;;;;23.13;4.72;;;;;;;8.87;68.72;71543.59;5085897;28;20082;-85
2021/03/24 09:46:06;;;;;;;18.55;4.95;;;;;;;9.47;69.38;71612.63;5089228;28;20205;-83
2021/03/24 09:49:05;;;;;;;17.48;6.15;;;;;;;9.36;70.30;71599.50;5068418;28;20033;-83
2021/03/24 09:51:42;;;;;;;11.77;5.45;;;;;;;8.52;71.48;71500.41;5045264;28;20041;-86
2021/03/24 09:54:17;;;;;;;16.90;5.15;;;;;;;8.92;73.17;71549.53;5050414;28;20132;-86
2021/03/24 09:56:55;;;;;;;17.17;7.38;;;;;;;8.56;74.46;71508.50;5057906;28;20019;-85
2021/03/24 09:59:28;;;;;;;30.17;7.18;;;;;;;8.12;73.98;71460.66;5070400;28;20040;-86
2021/03/24 10:02:16;;;;;;;22.35;7.00;;;;;;;8.69;74.23;71522.78;5069794;28;20017;-87
2021/03/24 10:04:53;;;;;;;14.55;6.22;;;;;;;8.71;74.09;71525.16;5069720;28;20025;-86
2021/03/24 10:07:23;;;;;;;18.45;7.60;;;;;;;8.63;73.86;71519.56;5071306;28;20025;-86
2021/03/24 10:10:16;;;;;;;15.23;7.65;;;;;;;8.71;73.89;71525.75;5070994;28;20060;-85
2021/03/24 10:12:42;;;;;;;11.90;5.25;;;;;;;8.76;72.57;71531.09;5069624;28;20054;-85
2021/03/24 10:15:36;;;;;;;22.70;6.63;;;;;;;8.81;72.81;71536.44;5070936;28;20025;-87
2021/03/24 10:18:23;;;;;;;12.68;4.53;;;;;;;8.47;72.28;71498.38;5069635;28;20111;-85
2021/03/24 10:21:14;;;;;;;15.88;5.22;;;;;;;8.83;72.60;71541.56;5069852;28;20064;-84
2021/03/24 10:24:03;;;;;;;16.20;4.43;;;;;;;8.86;72.66;71545.72;5069548;28;20036;-85
2021/03/24 10:26:39;;;;;;;12.43;5.03;;;;;;;8.78;72.57;71532.88;5070339;28;20017;-85
2021/03/24 10:29:17;;;;;;;26.00;6.45;;;;;;;8.43;72.55;71493.59;5069331;28;20050;-85
2021/03/24 10:31:59;;;;;;;13.82;4.97;;;;;;;8.14;73.39;71462.47;5069272;28;20127;-85
2021/03/24 10:34:53;;;;;;;14.98;6.32;;;;;;;8.37;74.05;71485.88;5069179;28;20424;-85
2021/03/24 10:37:54;;;;;;;21.27;5.30;;;;;;;8.68;73.73;71518.84;5070963;28;20032;-85
2021/03/24 10:40:36;;;;;;;17.58;5.47;;;;;;;8.71;73.68;71527.88;5069529;28;20029;-85
2021/03/24 10:43:12;;;;;;;15.27;5.28;;;;;;;8.43;74.26;71495.75;5070820;28;20040;-86
2021/03/24 10:46:01;;;;;;;16.83;4.78;;;;;;;8.71;73.73;71522.41;5069860;28;20033;-85
2021/03/24 10:48:40;;;;;;;12.18;5.95;;;;;;;8.83;72.96;71541.56;5073826;28;20134;-85
2021/03/24 10:51:35;;;;;;;14.75;3.63;;;;;;;8.95;71.77;71552.50;5076364;28;20033;-85
2021/03/24 10:54:14;;;;;;;20.73;5.78;;;;;;;9.03;72.20;71559.28;5074529;28;20056;-84
2021/03/24 10:57:08;;;;;;;21.13;7.18;;;;;;;8.56;71.37;71508.50;5072663;28;20498;-83
2021/03/24 10:59:42;;;;;;;12.52;5.35;;;;;;;9.28;71.06;71593.34;5075210;28;20059;-85
2021/03/24 11:02:27;;;;;;;17.77;5.70;;;;;;;9.19;71.05;71583.22;5074681;28;20097;-84
2021/03/24 11:05:14;;;;;;;14.45;4.32;;;;;;;8.81;71.26;71537.06;5074216;28;20099;-85
2021/03/24 11:07:54;;;;;;;12.98;5.00;;;;;;;7.96;71.26;71438.91;5073361;28;20031;-84
2021/03/24 11:10:48;;;;;;;11.93;6.07;;;;;;;9.29;70.86;71591.78;5073776;28;20412;-84
2021/03/24 11:13:37;;;;;;;16.30;5.43;;;;;;;8.30;70.29;71476.00;5074435;28;20060;-84
2021/03/24 11:16:14;;;;;;;16.10;5.15;;;;;;;8.80;70.59;71530.38;5072996;28;20029;-84
2021/03/24 11:18:45;;;;;;;27.23;4.93;;;;;;;9.08;70.16;71570.72;5073008;28;20095;-84
2021/03/24 11:21:27;;;;;;;21.88;5.03;;;;;;;9.40;69.89;71599.38;5075442;28;20269;-84
2021/03/24 11:24:05;;;;;;;12.02;4.22;;;;;;;8.07;69.71;71452.59;5072795;28;20028;-84
2021/03/24 11:26:56;;;;;;;18.77;5.38;;;;;;;9.06;69.59;71562.88;5073425;28;20020;-84
2021/03/24 11:29:26;;;;;;;14.35;4.63;;;;;;;9.34;69.20;71595.00;5072365;28;20029;-83
2021/03/24 11:32:03;;;;;;;24.27;4.85;;;;;;;8.90;69.79;71547.75;5072195;28;20028;-83
2021/03/24 11:35:04;;;;;;;16.88;5.35;;;;;;;8.81;69.83;71534.31;5072708;28;20038;-85
2021/03/24 11:37:48;;;;;;;17.30;4.65;;;;;;;9.52;69.91;71620.72;5071906;28;20056;-84
2021/03/24 11:40:29;;;;;;;13.60;6.00;;;;;;;8.67;70.20;71520.97;5072007;28;20036;-85
2021/03/24 11:43:19;;;;;;;17.77;5.97;;;;;;;8.47;70.32;71498.38;5073542;28;20454;-85
2021/03/24 11:45:47;;;;;;;19.35;4.85;;;;;;;8.47;71.13;71495.63;5073192;28;20063;-85
2021/03/24 11:48:41;;;;;;;13.98;5.35;;;;;;;8.80;71.00;71538.59;5072150;28;20036;-85
2021/03/24 11:51:32;;;;;;;16.63;5.10;;;;;;;9.01;70.63;71560.25;5072327;28;20032;-85
2021/03/24 11:53:59;;;;;;;19.85;5.05;;;;;;;9.29;70.62;71591.78;5072217;28;20028;-83
2021/03/24 11:56:38;;;;;;;18.45;6.28;;;;;;;9.28;70.91;71590.59;5072931;28;20033;-85
2021/03/24 11:59:14;;;;;;;14.63;4.80;;;;;;;9.16;70.25;71576.91;5070781;28;20059;-85
2021/03/24 12:02:06;;;;;;;21.13;6.35;;;;;;;8.93;71.20;71552.88;5071807;28;20102;-84
2021/03/24 12:04:50;;;;;;;16.30;5.45;;;;;;;9.31;71.01;71594.75;5071714;28;20155;-87
2021/03/24 12:07:42;;;;;;;18.15;6.47;;;;;;;8.34;71.42;71483.50;5051847;28;20072;-86
2021/03/24 12:10:11;;;;;;;12.45;5.03;;;;;;;9.31;71.36;71594.16;5067803;28;20388;-85
2021/03/24 12:12:39;;;;;;;25.42;7.30;;;;;;;8.68;70.86;71519.44;5051680;28;20367;-84
2021/03/24 12:15:26;;;;;;;15.48;4.95;;;;;;;8.28;70.67;71476.38;5055628;28;20025;-84
2021/03/24 12:18:11;;;;;;;22.55;5.45;;;;;;;9.24;70.24;71585.81;5071404;28;20059;-85
2021/03/24 12:20:52;;;;;;;12.57;5.57;;;;;;;8.99;70.63;71560.00;5071596;28;20589;-84
2021/03/24 12:23:21;;;;;;;12.95;3.95;;;;;;;9.47;71.28;71614.75;5072029;28;20097;-84